createdAt,value
2019-01-23T00:02:16.129Z,47.40
2019-01-23T00:04:46.828Z,46.77
2019-01-23T00:07:17.530Z,47.20
2019-01-23T00:09:48.016Z,47.60
2019-01-23T00:12:18.520Z,47.90
2019-01-23T00:14:48.968Z,48.47
2019-01-23T00:17:20.622Z,47.37
2019-01-23T00:19:52.730Z,47.97
2019-01-23T00:22:23.258Z,51.17
2019-01-23T00:24:53.748Z,51.07
2019-01-23T00:27:24.306Z,48.37
2019-01-23T00:29:54.739Z,48.23
2019-01-23T00:32:25.182Z,51.90
2019-01-23T00:34:55.572Z,50.77
2019-01-23T00:37:26.173Z,51.03
2019-01-23T00:39:56.583Z,51.30
2019-01-23T00:42:27.009Z,48.17
2019-01-23T00:44:58.938Z,49.60
2019-01-23T00:47:31.110Z,51.57
2019-01-23T00:50:01.631Z,51.50
2019-01-23T00:52:32.386Z,52.27
2019-01-23T00:55:02.899Z,51.27
2019-01-23T00:57:33.375Z,52.53
2019-01-23T01:00:09.435Z,49.53
2019-01-23T01:02:40.048Z,49.80
2019-01-23T01:05:11.033Z,50.47
2019-01-23T01:07:41.623Z,49.00
2019-01-23T01:10:13.337Z,50.07
2019-01-23T01:12:44.037Z,51.67
2019-01-23T01:15:14.919Z,52.83
2019-01-23T01:17:45.748Z,52.17
2019-01-23T01:20:16.657Z,51.50
2019-01-23T01:22:47.349Z,50.33
2019-01-23T01:25:18.602Z,51.10
2019-01-23T01:27:49.069Z,50.23
2019-01-23T01:30:21.667Z,54.37
2019-01-23T01:32:52.139Z,53.00
2019-01-23T01:35:22.492Z,52.43
2019-01-23T01:37:52.891Z,50.50
2019-01-23T01:40:24.343Z,51.83
2019-01-23T01:42:54.762Z,48.47
2019-01-23T01:45:25.179Z,48.87
2019-01-23T01:47:55.632Z,47.37
2019-01-23T01:50:25.979Z,46.90
2019-01-23T01:52:56.426Z,45.90
2019-01-23T01:55:26.840Z,42.93
2019-01-23T01:58:00.988Z,43.10
2019-01-23T02:00:31.577Z,43.87
2019-01-23T02:03:02.215Z,44.67
2019-01-23T02:05:32.566Z,44.90
2019-01-23T02:08:03.057Z,43.47
2019-01-23T02:10:33.469Z,43.17
2019-01-23T02:13:03.933Z,42.60
2019-01-23T02:15:34.794Z,45.50
2019-01-23T02:18:05.177Z,45.60
2019-01-23T02:20:35.589Z,47.33
2019-01-23T02:23:06.031Z,48.93
2019-01-23T02:25:36.435Z,47.20
2019-01-23T02:28:06.941Z,48.10
2019-01-23T02:30:38.886Z,47.40
2019-01-23T02:33:09.351Z,47.83
2019-01-23T02:35:39.904Z,47.00
2019-01-23T02:38:10.412Z,47.83
2019-01-23T02:40:40.864Z,46.47
2019-01-23T02:43:11.314Z,47.20
2019-01-23T02:45:41.813Z,47.53
2019-01-23T02:48:12.252Z,47.87
2019-01-23T02:50:43.901Z,45.47
2019-01-23T02:53:16.606Z,44.90
2019-01-23T02:55:47.170Z,43.73
2019-01-23T02:58:20.019Z,42.80
2019-01-23T03:00:50.442Z,42.73
2019-01-23T03:03:21.024Z,43.53
2019-01-23T03:05:51.438Z,42.40
2019-01-23T03:08:21.867Z,43.77
2019-01-23T03:10:52.282Z,44.47
2019-01-23T03:13:22.790Z,44.63
2019-01-23T03:15:53.169Z,42.93
2019-01-23T03:18:23.587Z,43.43
2019-01-23T03:20:54.016Z,43.50
2019-01-23T03:23:24.428Z,44.43
2019-01-23T03:25:54.899Z,42.40
2019-01-23T03:28:25.355Z,44.43
2019-01-23T03:30:55.853Z,43.53
2019-01-23T03:33:26.222Z,43.80
2019-01-23T03:35:56.675Z,41.03
2019-01-23T03:38:27.069Z,42.80
2019-01-23T03:40:57.481Z,41.63
2019-01-23T03:43:27.966Z,44.90
2019-01-23T03:45:58.380Z,46.63
2019-01-23T03:48:28.781Z,45.73
2019-01-23T03:50:59.462Z,44.77
2019-01-23T03:53:29.969Z,47.00
2019-01-23T03:56:00.435Z,49.10
2019-01-23T03:58:30.957Z,46.50
2019-01-23T04:01:01.489Z,45.83
2019-01-23T04:03:31.955Z,48.23
2019-01-23T04:06:02.463Z,44.97
2019-01-23T04:08:32.933Z,47.40
2019-01-23T04:11:03.382Z,47.43
2019-01-23T04:13:33.989Z,48.70
2019-01-23T04:16:04.516Z,45.17
2019-01-23T04:18:34.913Z,44.70
2019-01-23T04:21:05.384Z,44.63
2019-01-23T04:23:35.889Z,44.47
2019-01-23T04:26:06.294Z,41.47
2019-01-23T04:28:37.870Z,43.87
2019-01-23T04:31:11.487Z,42.93
2019-01-23T04:33:42.015Z,39.60
2019-01-23T04:36:12.458Z,38.70
2019-01-23T04:38:42.852Z,40.13
2019-01-23T04:41:13.699Z,37.33
2019-01-23T04:43:46.188Z,40.50
2019-01-23T04:46:16.595Z,41.20
2019-01-23T04:48:47.015Z,39.17
2019-01-23T04:51:45.467Z,39.23
2019-01-23T04:54:15.317Z,39.37
2019-01-23T04:56:45.648Z,39.13
2019-01-23T04:59:16.068Z,39.73
2019-01-23T05:01:46.407Z,42.07
2019-01-23T05:04:16.896Z,40.83
2019-01-23T05:06:47.236Z,40.37
2019-01-23T05:09:17.710Z,38.43
2019-01-23T05:11:48.115Z,41.87
2019-01-23T05:14:18.584Z,40.47
2019-01-23T05:16:48.849Z,43.60
2019-01-23T05:19:19.208Z,40.87
2019-01-23T05:21:49.576Z,40.20
2019-01-23T05:24:19.935Z,40.27
2019-01-23T05:26:50.315Z,40.50
2019-01-23T05:29:20.770Z,42.40
2019-01-23T05:31:51.077Z,43.37
2019-01-23T05:34:21.501Z,43.33
2019-01-23T05:36:51.962Z,41.97
2019-01-23T05:39:22.453Z,42.07
2019-01-23T05:41:52.873Z,42.33
2019-01-23T05:44:23.341Z,41.50
2019-01-23T05:46:53.746Z,40.40
2019-01-23T05:49:24.402Z,39.10
2019-01-23T05:51:54.857Z,43.10
2019-01-23T05:54:25.259Z,40.83
2019-01-23T05:56:55.713Z,41.40
2019-01-23T05:59:26.086Z,41.03
2019-01-23T06:01:56.483Z,41.77
2019-01-23T06:04:26.953Z,42.47
2019-01-23T06:06:57.291Z,38.43
2019-01-23T06:09:27.673Z,40.73
2019-01-23T06:11:59.332Z,42.17
2019-01-23T06:14:29.806Z,39.93
2019-01-23T06:17:06.886Z,39.73
2019-01-23T06:19:32.699Z,41.37
2019-01-23T06:22:03.064Z,37.67
2019-01-23T06:24:33.502Z,40.90
2019-01-23T06:27:04.010Z,40.33
2019-01-23T06:29:34.383Z,39.90
2019-01-23T06:32:04.788Z,40.20
2019-01-23T06:34:36.677Z,38.63
2019-01-23T06:37:08.437Z,38.53
2019-01-23T06:39:38.915Z,33.53
2019-01-23T06:42:10.409Z,33.87
2019-01-23T06:44:40.797Z,35.17
2019-01-23T06:47:11.217Z,34.53
2019-01-23T06:49:41.739Z,34.33
2019-01-23T06:52:12.114Z,35.17
2019-01-23T06:54:42.487Z,33.93
2019-01-23T06:57:14.246Z,32.90
2019-01-23T06:59:44.614Z,33.87
2019-01-23T07:02:15.179Z,35.00
2019-01-23T07:04:45.479Z,34.43
2019-01-23T07:07:15.824Z,34.83
2019-01-23T07:09:46.128Z,33.43
2019-01-23T07:12:16.535Z,34.20
2019-01-23T07:14:46.843Z,30.37
2019-01-23T07:17:17.220Z,30.70
2019-01-23T07:19:47.582Z,29.73
2019-01-23T07:22:18.050Z,27.57
2019-01-23T07:24:48.407Z,28.23
2019-01-23T07:27:18.777Z,30.13
2019-01-23T07:29:49.101Z,29.20
2019-01-23T07:32:19.511Z,28.07
2019-01-23T07:34:49.912Z,30.00
2019-01-23T07:37:20.341Z,30.63
2019-01-23T07:39:50.712Z,30.00
2019-01-23T07:42:21.084Z,27.70
2019-01-23T07:44:51.397Z,27.20
2019-01-23T07:47:21.747Z,27.23
2019-01-23T07:49:52.106Z,28.30
2019-01-23T07:52:22.576Z,26.87
2019-01-23T07:54:53.028Z,26.73
2019-01-23T07:57:23.476Z,26.33
2019-01-23T07:59:53.876Z,27.13
2019-01-23T08:02:24.521Z,27.40
2019-01-23T08:04:54.816Z,26.70
2019-01-23T08:07:25.142Z,26.97
2019-01-23T08:09:55.483Z,27.30
2019-01-23T08:12:25.840Z,26.53
2019-01-23T08:14:57.631Z,27.53
2019-01-23T08:17:32.787Z,25.53
2019-01-23T08:20:00.072Z,25.97
2019-01-23T08:22:30.436Z,27.33
2019-01-23T08:25:00.750Z,28.73
2019-01-23T08:27:31.202Z,26.93
2019-01-23T08:30:01.660Z,28.00
2019-01-23T08:32:32.249Z,28.83
2019-01-23T08:35:02.664Z,27.87
2019-01-23T08:37:33.159Z,28.33
2019-01-23T08:40:03.789Z,26.07
2019-01-23T08:42:34.141Z,27.70
2019-01-23T08:45:05.347Z,29.77
2019-01-23T08:47:35.743Z,30.17
2019-01-23T08:50:26.990Z,29.07
2019-01-23T08:52:57.272Z,28.33
2019-01-23T08:55:29.347Z,27.73
2019-01-23T08:57:59.680Z,28.67
2019-01-23T09:00:30.162Z,28.87
2019-01-23T09:03:00.456Z,28.43
2019-01-23T09:05:30.828Z,29.37
2019-01-23T09:08:01.215Z,27.47
2019-01-23T09:10:31.707Z,30.07
2019-01-23T09:13:02.048Z,31.53
2019-01-23T09:15:32.437Z,29.23
2019-01-23T09:18:02.771Z,29.03
2019-01-23T09:20:33.390Z,29.90
2019-01-23T09:23:03.674Z,29.43
2019-01-23T09:25:35.204Z,29.90
2019-01-23T09:28:05.840Z,29.93
2019-01-23T09:30:42.780Z,29.10
2019-01-23T09:33:51.992Z,28.77
2019-01-23T09:37:00.475Z,28.20
2019-01-23T09:40:13.658Z,26.40
2019-01-23T09:43:16.173Z,28.30
2019-01-23T09:46:16.816Z,27.80
2019-01-23T09:49:10.711Z,26.50
2019-01-23T09:52:17.914Z,26.67
2019-01-23T09:54:48.283Z,27.03
2019-01-23T09:57:21.864Z,28.83
2019-01-23T09:59:52.193Z,27.77
2019-01-23T10:02:22.616Z,28.83
2019-01-23T10:04:53.003Z,29.63
2019-01-23T10:07:23.453Z,31.43
2019-01-23T10:09:54.026Z,28.90
2019-01-23T10:12:24.350Z,28.97
2019-01-23T10:14:54.747Z,30.73
2019-01-23T10:17:25.259Z,28.90
2019-01-23T10:19:55.799Z,30.10
2019-01-23T10:22:26.161Z,29.50
2019-01-23T10:24:56.620Z,29.73
2019-01-23T10:27:27.196Z,29.40
2019-01-23T10:29:57.630Z,30.27
2019-01-23T10:32:28.084Z,30.13
2019-01-23T10:35:00.245Z,29.13
2019-01-23T10:37:30.661Z,29.63
2019-01-23T10:40:02.571Z,29.43
2019-01-23T10:42:33.247Z,31.43
2019-01-23T10:45:04.005Z,30.87
2019-01-23T10:47:34.393Z,31.67
2019-01-23T10:50:05.973Z,30.70
2019-01-23T10:52:36.311Z,31.17
2019-01-23T10:55:07.048Z,30.33
2019-01-23T10:57:37.473Z,30.60
2019-01-23T11:00:11.442Z,29.47
2019-01-23T11:02:41.867Z,28.40
2019-01-23T11:05:15.766Z,29.23
2019-01-23T11:07:46.197Z,28.13
2019-01-23T11:10:18.968Z,28.10
2019-01-23T11:12:50.421Z,29.90
2019-01-23T11:15:22.744Z,30.27
2019-01-23T11:17:53.801Z,31.30
2019-01-23T11:20:24.159Z,31.73
2019-01-23T11:22:54.605Z,31.67
2019-01-23T11:25:25.086Z,32.60
2019-01-23T11:27:57.142Z,32.33
2019-01-23T11:30:27.838Z,31.47
2019-01-23T11:32:58.413Z,32.23
2019-01-23T11:35:29.972Z,34.10
2019-01-23T11:38:00.678Z,34.43
2019-01-23T11:40:31.955Z,36.20
2019-01-23T11:43:03.319Z,34.70
2019-01-23T11:45:33.761Z,36.27
2019-01-23T11:48:04.139Z,35.47
2019-01-23T11:50:36.747Z,37.37
2019-01-23T11:53:07.459Z,37.27
2019-01-23T11:55:37.975Z,36.07
2019-01-23T11:58:08.497Z,37.73
2019-01-23T12:00:39.074Z,38.17
2019-01-23T12:03:09.671Z,39.80
2019-01-23T12:05:40.163Z,38.00
2019-01-23T12:08:11.594Z,37.30
2019-01-23T12:10:42.021Z,38.57
2019-01-23T12:13:12.509Z,38.87
2019-01-23T12:15:43.030Z,38.57
2019-01-23T12:18:13.662Z,39.53
2019-01-23T12:20:44.214Z,38.63
2019-01-23T12:23:14.780Z,41.70
2019-01-23T12:25:45.618Z,40.97
2019-01-23T12:28:16.213Z,38.93
2019-01-23T12:30:48.392Z,41.10
2019-01-23T12:33:18.838Z,40.57
2019-01-23T12:35:49.367Z,39.37
2019-01-23T12:38:22.452Z,41.87
2019-01-23T12:40:52.982Z,41.77
2019-01-23T12:43:23.685Z,42.63
2019-01-23T12:45:55.516Z,42.33
2019-01-23T12:48:26.410Z,40.23
2019-01-23T12:50:56.988Z,39.00
2019-01-23T12:53:27.720Z,42.53
2019-01-23T12:55:58.199Z,42.80
2019-01-23T12:58:31.527Z,41.57
2019-01-23T13:01:02.045Z,41.57
2019-01-23T13:03:32.676Z,43.43
2019-01-23T13:06:03.354Z,41.23
2019-01-23T13:08:33.915Z,41.50
2019-01-23T13:11:05.584Z,40.00
2019-01-23T13:13:38.333Z,40.33
2019-01-23T13:16:10.368Z,43.70
2019-01-23T13:18:43.309Z,43.03
2019-01-23T13:21:14.994Z,42.70
2019-01-23T13:23:48.599Z,42.03
2019-01-23T13:26:21.789Z,41.80
2019-01-23T13:28:53.254Z,41.50
2019-01-23T13:31:26.991Z,41.43
2019-01-23T13:33:57.480Z,41.60
2019-01-23T13:36:28.001Z,40.60
2019-01-23T13:39:01.614Z,42.07
2019-01-23T13:41:33.792Z,40.73
2019-01-23T13:44:04.184Z,42.00
2019-01-23T13:46:34.600Z,41.20
2019-01-23T13:49:04.918Z,42.43
2019-01-23T13:51:35.294Z,41.07
2019-01-23T13:54:05.796Z,40.90
2019-01-23T13:56:36.132Z,38.57
2019-01-23T13:59:06.495Z,40.00
2019-01-23T14:01:36.898Z,41.67
2019-01-23T14:04:07.344Z,40.00
2019-01-23T14:06:38.891Z,38.27
2019-01-23T14:09:09.662Z,36.90
2019-01-23T14:11:41.209Z,34.30
2019-01-23T14:14:11.631Z,36.97
2019-01-23T14:16:43.501Z,34.80
2019-01-23T14:19:14.841Z,35.43
2019-01-23T14:21:45.161Z,34.53
2019-01-23T14:24:15.518Z,33.53
2019-01-23T14:26:46.011Z,34.30
2019-01-23T14:29:16.513Z,35.10
2019-01-23T14:31:49.596Z,33.20
2019-01-23T14:34:20.214Z,34.70
2019-01-23T14:37:04.775Z,33.30
2019-01-23T14:39:35.271Z,32.50
2019-01-23T14:42:06.643Z,32.47
2019-01-23T14:44:37.144Z,32.83
2019-01-23T14:47:07.756Z,34.35
2019-01-23T14:49:38.268Z,29.90
2019-01-23T15:00:55.579Z,26.67
2019-01-23T15:07:31.145Z,28.03
2019-01-23T15:10:01.646Z,27.53
2019-01-23T15:12:32.426Z,28.87
2019-01-23T15:15:02.985Z,30.13
2019-01-23T15:17:33.561Z,30.93
2019-01-23T15:20:05.245Z,30.17
2019-01-23T15:22:35.841Z,30.53
2019-01-23T15:25:06.685Z,31.13
2019-01-23T15:27:37.103Z,30.77
2019-01-23T15:30:07.908Z,29.00
2019-01-23T15:32:38.518Z,30.70
2019-01-23T15:35:11.181Z,30.10
2019-01-23T15:37:41.552Z,29.47
2019-01-23T15:40:15.341Z,30.00
2019-01-23T15:42:45.936Z,28.63
2019-01-23T15:45:16.775Z,28.53
2019-01-23T15:47:50.314Z,29.50
2019-01-23T15:50:22.882Z,29.33
2019-01-23T15:52:53.505Z,27.77
2019-01-23T15:55:24.686Z,27.03
2019-01-23T15:57:55.229Z,28.67
2019-01-23T16:00:27.668Z,27.37
2019-01-23T16:02:58.092Z,25.73
2019-01-23T16:05:28.656Z,26.30
2019-01-23T16:07:59.103Z,25.00
2019-01-23T16:10:30.107Z,25.70
2019-01-23T16:13:03.099Z,24.93
2019-01-23T16:15:33.989Z,26.03
2019-01-23T16:18:04.472Z,25.37
2019-01-23T16:20:34.870Z,23.97
2019-01-23T16:23:05.252Z,25.53
2019-01-23T16:25:35.746Z,24.10
2019-01-23T16:28:06.151Z,25.03
2019-01-23T16:30:38.492Z,25.00
2019-01-23T16:33:09.237Z,26.03
2019-01-23T16:35:39.792Z,26.57
2019-01-23T16:38:11.634Z,26.33
2019-01-23T16:40:43.745Z,26.87
2019-01-23T16:43:14.270Z,26.40
2019-01-23T16:45:47.377Z,28.07
2019-01-23T16:48:17.888Z,26.93
2019-01-23T16:50:48.261Z,27.57
2019-01-23T16:53:18.661Z,29.73
2019-01-23T16:55:48.983Z,28.70
2019-01-23T16:58:19.388Z,27.90
2019-01-23T17:00:49.812Z,29.50
2019-01-23T17:03:20.162Z,27.77
2019-01-23T17:05:50.693Z,28.17
2019-01-23T17:08:21.623Z,29.90
2019-01-23T17:10:55.044Z,28.07
2019-01-23T17:13:25.696Z,27.90
2019-01-23T17:16:02.827Z,27.27
2019-01-23T17:18:34.902Z,27.30
2019-01-23T17:21:05.732Z,26.73
2019-01-23T17:23:36.214Z,27.17
2019-01-23T17:26:06.985Z,25.53
2019-01-23T17:28:37.470Z,26.00
2019-01-23T17:31:07.933Z,24.40
2019-01-23T17:33:38.471Z,24.53
2019-01-23T17:36:12.299Z,23.57
2019-01-23T17:38:44.370Z,23.97
2019-01-23T17:41:14.715Z,25.43
2019-01-23T17:43:45.583Z,27.63
2019-01-23T17:46:16.914Z,27.20
2019-01-23T17:48:47.401Z,25.97
2019-01-23T17:51:18.002Z,25.67
2019-01-23T17:53:48.405Z,26.43
2019-01-23T17:56:18.909Z,26.67
2019-01-23T17:58:49.343Z,26.97
2019-01-23T18:01:50.416Z,29.53
2019-01-23T18:04:22.676Z,30.70
2019-01-23T18:06:53.301Z,31.20
2019-01-23T18:09:23.885Z,33.33
2019-01-23T18:11:54.394Z,32.37
2019-01-23T18:14:24.886Z,32.57
2019-01-23T18:16:55.406Z,32.67
2019-01-23T18:19:25.883Z,31.73
2019-01-23T18:21:56.625Z,30.63
2019-01-23T18:24:27.242Z,29.80
2019-01-23T18:26:58.678Z,30.43
2019-01-23T18:29:29.167Z,28.53
2019-01-23T18:32:03.691Z,32.30
2019-01-23T18:35:08.393Z,31.17
2019-01-23T18:38:23.917Z,31.57
2019-01-23T18:41:54.460Z,30.57
2019-01-23T18:44:46.086Z,32.47
2019-01-23T18:48:08.818Z,29.43
2019-01-23T18:51:24.189Z,30.70
2019-01-23T18:53:55.023Z,29.03
2019-01-23T18:56:27.899Z,33.07
2019-01-23T18:59:00.479Z,30.60
2019-01-23T19:01:31.114Z,32.23
2019-01-23T19:04:04.790Z,31.77
2019-01-23T19:06:35.708Z,32.17
2019-01-23T19:09:10.063Z,31.23
2019-01-23T19:11:43.569Z,33.03
2019-01-23T19:14:14.167Z,31.20
2019-01-23T19:16:44.678Z,32.70
2019-01-23T19:19:15.250Z,33.90
2019-01-23T19:21:46.042Z,34.00
2019-01-23T19:24:16.442Z,32.57
2019-01-23T19:26:46.851Z,33.13
2019-01-23T19:29:17.320Z,32.47
2019-01-23T19:31:48.672Z,32.77
2019-01-23T19:34:19.676Z,31.90
2019-01-23T19:36:51.310Z,34.73
2019-01-23T19:39:21.646Z,33.40
2019-01-23T19:41:52.197Z,37.50
2019-01-23T19:44:22.899Z,39.43
2019-01-23T19:46:53.307Z,34.83
2019-01-23T19:49:23.905Z,33.23
2019-01-23T19:51:56.075Z,34.53
2019-01-23T19:54:26.425Z,34.33
2019-01-23T19:56:56.943Z,31.90
2019-01-23T19:59:27.373Z,34.83
2019-01-23T20:01:57.881Z,35.20
2019-01-23T20:04:29.185Z,35.53
2019-01-23T20:06:59.745Z,33.80
2019-01-23T20:09:32.682Z,33.03
2019-01-23T20:12:03.458Z,33.43
2019-01-23T20:14:33.910Z,34.90
2019-01-23T20:17:04.532Z,34.37
2019-01-23T20:19:35.080Z,33.97
2019-01-23T20:22:05.983Z,35.40
2019-01-23T20:24:38.206Z,35.80
2019-01-23T20:27:08.762Z,34.93
2019-01-23T20:29:39.223Z,34.57
2019-01-23T20:32:09.757Z,33.63
2019-01-23T20:34:40.267Z,33.60
2019-01-23T20:37:10.612Z,42.37
2019-01-23T20:39:41.012Z,36.57
2019-01-23T20:42:11.497Z,35.80
2019-01-23T20:44:41.959Z,36.07
2019-01-23T20:47:12.410Z,35.27
2019-01-23T20:49:42.879Z,35.03
2019-01-23T20:52:13.377Z,33.53
2019-01-23T20:54:43.887Z,33.90
2019-01-23T20:57:14.314Z,37.60
2019-01-23T20:59:44.825Z,35.33
2019-01-23T21:02:15.317Z,33.73
2019-01-23T21:04:45.727Z,34.27
2019-01-23T21:07:16.181Z,43.63
2019-01-23T21:09:46.565Z,40.80
2019-01-23T21:12:18.792Z,43.03
2019-01-23T21:14:49.043Z,42.57
2019-01-23T21:17:19.521Z,35.20
2019-01-23T21:19:50.024Z,34.47
2019-01-23T21:22:21.307Z,36.47
2019-01-23T21:24:51.602Z,41.13
2019-01-23T21:27:22.062Z,35.97
2019-01-23T21:29:52.389Z,35.63
2019-01-23T21:32:22.845Z,33.60
2019-01-23T21:34:53.247Z,33.47
2019-01-23T21:37:23.590Z,32.83
2019-01-23T21:39:53.914Z,34.33
2019-01-23T21:42:25.332Z,35.20
2019-01-23T21:44:55.728Z,34.30
2019-01-23T21:47:26.122Z,32.33
2019-01-23T21:49:56.474Z,31.47
2019-01-23T21:52:27.026Z,34.20
2019-01-23T21:54:57.438Z,32.13
2019-01-23T21:57:27.887Z,35.33
2019-01-23T21:59:58.278Z,32.07
2019-01-23T22:02:28.628Z,33.50
2019-01-23T22:04:59.054Z,32.93
2019-01-23T22:07:29.658Z,34.50
2019-01-23T22:10:00.329Z,32.83
2019-01-23T22:12:30.847Z,31.73
2019-01-23T22:15:01.265Z,33.80
2019-01-23T22:17:31.866Z,32.07
2019-01-23T22:20:02.306Z,34.43
2019-01-23T22:22:32.925Z,35.43
2019-01-23T22:25:03.355Z,34.37
2019-01-23T22:27:35.303Z,34.40
2019-01-23T22:30:12.530Z,33.33
2019-01-23T22:32:43.075Z,34.77
2019-01-23T22:35:13.614Z,33.90
2019-01-23T22:37:44.046Z,35.00
2019-01-23T22:40:15.684Z,34.93
2019-01-23T22:42:46.145Z,34.50
2019-01-23T22:45:18.277Z,34.97
2019-01-23T22:47:48.769Z,33.20
2019-01-23T22:50:25.705Z,32.90
2019-01-23T22:52:56.120Z,34.00
2019-01-23T22:55:26.608Z,36.43
2019-01-23T22:57:56.938Z,37.80
2019-01-23T23:00:50.001Z,34.73
2019-01-23T23:03:22.318Z,34.93
2019-01-23T23:05:53.122Z,36.30
2019-01-23T23:08:23.499Z,39.87
2019-01-23T23:10:53.901Z,38.63
2019-01-23T23:13:24.323Z,40.70
2019-01-23T23:15:55.722Z,37.47
2019-01-23T23:18:26.204Z,43.00
2019-01-23T23:20:56.544Z,41.67
2019-01-23T23:23:27.001Z,38.80
2019-01-23T23:25:58.855Z,43.13
2019-01-23T23:28:29.282Z,45.27
2019-01-23T23:30:59.763Z,44.40
2019-01-23T23:33:30.214Z,41.87
2019-01-23T23:36:00.619Z,40.40
2019-01-23T23:38:30.950Z,39.23
2019-01-23T23:41:01.212Z,42.40
2019-01-23T23:43:31.504Z,44.37
2019-01-23T23:46:01.798Z,38.83
2019-01-23T23:48:32.125Z,37.50
2019-01-23T23:51:02.504Z,37.50
2019-01-23T23:53:32.850Z,38.73
2019-01-23T23:56:03.224Z,37.90
2019-01-23T23:58:33.494Z,39.83
